Time;durP1;ratioP1;P1;durP2;ratioP2;P2;SDS_P1;SDS_P2;PMS_P1;PMS_P2;Temp;Humidity;BMP_temperature;BMP_pressure;BME280_temperature;BME280_humidity;BME280_pressure;Samples;Min_cycle;Max_cycle;Signal;HPM_P1;HPM_P2
2023/10/01 00:01:17;;;;;;;16.33;7.75;;;;;;;13.13;100.00;102342.34;5090048;28;20475;-66
2023/10/01 00:03:42;;;;;;;19.27;8.63;;;;;;;13.12;100.00;102336.13;5088543;28;20032;-66
2023/10/01 00:06:08;;;;;;;17.40;7.95;;;;;;;13.07;100.00;102338.53;5090051;28;20024;-66
2023/10/01 00:08:34;;;;;;;18.13;7.78;;;;;;;13.09;100.00;102343.69;5089874;28;20024;-66
2023/10/01 00:11:00;;;;;;;17.67;8.80;;;;;;;13.00;100.00;102331.38;5089876;28;20024;-66
2023/10/01 00:13:26;;;;;;;16.88;8.05;;;;;;;13.04;100.00;102346.88;5089453;28;20031;-66
2023/10/01 00:15:54;;;;;;;18.15;8.75;;;;;;;13.02;100.00;102351.59;5089140;28;20048;-66
2023/10/01 00:18:20;;;;;;;15.65;7.32;;;;;;;13.01;100.00;102339.22;5089631;28;20028;-67
2023/10/01 00:20:46;;;;;;;18.90;8.45;;;;;;;13.00;100.00;102340.22;5089670;28;20028;-66
2023/10/01 00:23:12;;;;;;;19.17;9.13;;;;;;;12.99;100.00;102351.94;5089056;28;20101;-66
2023/10/01 00:25:38;;;;;;;16.75;8.27;;;;;;;12.99;100.00;102349.25;5089534;28;20016;-66
2023/10/01 00:28:05;;;;;;;15.88;7.38;;;;;;;12.97;100.00;102351.31;5089488;28;20062;-66
2023/10/01 00:30:31;;;;;;;17.10;6.97;;;;;;;12.96;100.00;102351.47;5089454;28;20206;-67
2023/10/01 00:32:58;;;;;;;18.92;8.73;;;;;;;12.93;100.00;102353.47;5089496;28;20031;-67
2023/10/01 00:35:25;;;;;;;16.95;7.80;;;;;;;12.96;100.00;102354.97;5089130;28;20111;-67
2023/10/01 00:37:51;;;;;;;18.58;8.65;;;;;;;12.93;100.00;102342.75;5089309;28;20065;-67
2023/10/01 00:40:17;;;;;;;19.23;8.73;;;;;;;12.91;100.00;102342.09;5089419;28;20130;-67
2023/10/01 00:42:43;;;;;;;18.23;8.48;;;;;;;12.97;100.00;102348.63;5089317;28;20055;-66
2023/10/01 00:45:13;;;;;;;18.10;7.85;;;;;;;12.96;100.00;102338.91;5089208;28;20024;-67
2023/10/01 00:47:40;;;;;;;17.38;8.45;;;;;;;12.96;100.00;102343.44;5089230;28;20028;-66
2023/10/01 00:50:12;;;;;;;18.27;9.07;;;;;;;12.91;100.00;102326.03;5089083;28;20032;-66
2023/10/01 00:52:39;;;;;;;17.95;7.45;;;;;;;12.95;100.00;102334.56;5090968;28;20036;-67
2023/10/01 00:55:06;;;;;;;17.58;8.95;;;;;;;12.96;100.00;102325.50;5093492;28;20546;-66
2023/10/01 00:57:32;;;;;;;15.07;8.15;;;;;;;12.93;100.00;102321.34;5093414;28;20032;-66
2023/10/01 00:59:57;;;;;;;13.93;8.07;;;;;;;12.90;100.00;102316.34;5093296;28;20721;-67
2023/10/01 01:02:23;;;;;;;16.52;6.88;;;;;;;12.89;100.00;102316.50;5093509;28;20028;-67
2023/10/01 01:05:05;;;;;;;15.38;7.85;;;;;;;12.85;100.00;102316.03;5093247;28;20020;-67
2023/10/01 01:07:32;;;;;;;14.80;6.85;;;;;;;12.81;100.00;102308.53;5093431;28;20039;-66
2023/10/01 01:10:00;;;;;;;14.55;6.78;;;;;;;12.83;100.00;102309.19;5093077;28;20656;-66
2023/10/01 01:12:27;;;;;;;14.35;6.57;;;;;;;12.77;100.00;102313.41;5093302;28;20028;-66
2023/10/01 01:14:54;;;;;;;14.77;7.43;;;;;;;12.72;100.00;102305.88;5093062;28;20117;-66
2023/10/01 01:17:21;;;;;;;16.75;6.18;;;;;;;12.71;100.00;102309.59;5093178;28;20032;-67
2023/10/01 01:19:55;;;;;;;15.32;7.28;;;;;;;12.72;100.00;102308.56;5092877;28;20027;-66
2023/10/01 01:22:28;;;;;;;18.48;8.10;;;;;;;12.72;100.00;102313.09;5092720;28;20036;-66
2023/10/01 01:24:57;;;;;;;12.80;6.78;;;;;;;12.70;100.00;102313.25;5092648;28;20483;-67
2023/10/01 01:27:23;;;;;;;14.40;6.82;;;;;;;12.70;100.00;102307.91;5092917;28;20047;-66
2023/10/01 01:29:50;;;;;;;13.25;6.28;;;;;;;12.68;100.00;102304.59;5092956;28;20437;-66
2023/10/01 01:32:16;;;;;;;12.27;6.57;;;;;;;12.71;100.00;102301.56;5092533;28;20024;-66
2023/10/01 01:34:44;;;;;;;15.00;7.32;;;;;;;12.70;100.00;102307.06;5092758;28;20475;-66
2023/10/01 01:37:19;;;;;;;18.00;7.40;;;;;;;12.68;100.00;102298.38;5092466;28;20027;-66
2023/10/01 01:39:48;;;;;;;14.70;7.28;;;;;;;12.68;100.00;102301.06;5092736;28;20024;-67
2023/10/01 01:42:21;;;;;;;14.18;6.63;;;;;;;12.63;100.00;102296.25;5092736;28;20028;-67
2023/10/01 01:45:14;;;;;;;17.70;8.25;;;;;;;12.63;100.00;102288.22;5092364;28;20020;-67
2023/10/01 01:47:36;;;;;;;14.20;6.18;;;;;;;12.59;100.00;102288.72;5092428;28;20043;-66
2023/10/01 01:50:17;;;;;;;15.43;6.25;;;;;;;12.57;100.00;102290.75;5092600;28;20260;-67
2023/10/01 01:52:42;;;;;;;13.18;6.18;;;;;;;12.53;100.00;102295.63;5092784;28;20117;-66
2023/10/01 01:55:23;;;;;;;14.65;6.85;;;;;;;12.48;100.00;102287.28;5092441;28;20032;-66
2023/10/01 01:58:15;;;;;;;15.40;7.63;;;;;;;12.48;100.00;102288.09;5092334;28;20027;-66
2023/10/01 02:00:38;;;;;;;15.27;6.95;;;;;;;12.48;100.00;102288.09;5091787;28;20407;-67
2023/10/01 02:03:10;;;;;;;14.10;6.55;;;;;;;12.44;100.00;102281.44;5091856;28;20039;-67
2023/10/01 02:05:41;;;;;;;14.77;6.57;;;;;;;12.45;100.00;102284.94;5091652;28;20035;-66
2023/10/01 02:08:23;;;;;;;18.07;8.47;;;;;;;12.43;100.00;102278.94;5091880;28;20050;-66
2023/10/01 02:10:50;;;;;;;;;;;;;;;12.44;100.00;102284.13;5092456;28;20274;-66
2023/10/01 02:13:18;;;;;;;16.08;7.07;;;;;;;12.33;100.00;102275.63;5092017;28;20381;-66
2023/10/01 02:15:49;;;;;;;16.23;7.20;;;;;;;12.27;100.00;102272.63;5091871;28;20085;-67
2023/10/01 02:18:17;;;;;;;14.45;7.40;;;;;;;12.19;100.00;102270.00;5091851;28;20036;-66
2023/10/01 02:20:52;;;;;;;16.27;6.97;;;;;;;12.20;100.00;102268.97;5091866;28;20036;-66
2023/10/01 02:23:26;;;;;;;13.27;5.82;;;;;;;12.15;100.00;102267.81;5091789;28;20170;-66
2023/10/01 02:25:57;;;;;;;12.48;5.95;;;;;;;12.14;100.00;102266.16;5091748;28;20028;-66
2023/10/01 02:28:25;;;;;;;16.20;7.63;;;;;;;12.14;100.00;102261.66;5091842;28;20054;-67
2023/10/01 02:30:57;;;;;;;14.02;6.05;;;;;;;12.17;100.00;102265.81;5091829;28;20024;-66
2023/10/01 02:33:24;;;;;;;15.43;7.65;;;;;;;12.13;100.00;102259.13;5091766;28;20032;-67
2023/10/01 02:35:55;;;;;;;35.58;8.38;;;;;;;12.12;100.00;102260.16;5091520;28;20540;-67
2023/10/01 02:38:36;;;;;;;12.98;6.05;;;;;;;12.12;100.00;102263.66;5091632;28;20082;-66
2023/10/01 02:41:03;;;;;;;11.13;6.35;;;;;;;12.12;100.00;102258.31;5091604;28;20065;-67
2023/10/01 02:43:36;;;;;;;14.30;6.90;;;;;;;12.12;100.00;102269.00;5091450;28;20036;-66
2023/10/01 02:46:10;;;;;;;13.32;6.55;;;;;;;12.13;100.00;102278.72;5091529;28;20028;-67
2023/10/01 02:48:40;;;;;;;21.38;7.28;;;;;;;12.10;100.00;102272.84;5091479;28;20035;-67
2023/10/01 02:51:14;;;;;;;13.50;6.72;;;;;;;12.10;100.00;102281.72;5090213;28;20040;-67
2023/10/01 02:54:05;;;;;;;14.98;7.13;;;;;;;12.03;100.00;102270.88;5091333;28;20035;-67
2023/10/01 02:56:37;;;;;;;15.83;6.37;;;;;;;12.08;100.00;102270.38;5091243;28;20042;-66
2023/10/01 02:59:12;;;;;;;13.80;5.85;;;;;;;12.05;100.00;102278.72;5091165;28;20819;-66
2023/10/01 03:01:45;;;;;;;12.90;6.65;;;;;;;12.00;100.00;102273.06;5091126;28;20030;-66
2023/10/01 03:04:15;;;;;;;14.45;6.35;;;;;;;11.99;100.00;102274.06;5091197;28;20032;-66
2023/10/01 03:06:53;;;;;;;14.02;6.05;;;;;;;11.95;100.00;102270.06;5091086;28;20038;-67
2023/10/01 03:09:33;;;;;;;13.60;5.53;;;;;;;11.93;100.00;102262.22;5089968;28;20112;-66
2023/10/01 03:17:38;;;;;;;10.77;5.75;;;;;;;11.91;100.00;102260.72;5090731;28;20047;-66
2023/10/01 03:23:01;;;;;;;10.32;5.45;;;;;;;11.87;100.00;102262.03;5089426;28;20364;-66
2023/10/01 03:25:30;;;;;;;12.40;6.28;;;;;;;11.87;100.00;102259.38;5090290;28;20048;-67
2023/10/01 03:27:59;;;;;;;13.68;6.93;;;;;;;11.87;100.00;102256.69;5090684;28;20047;-66
2023/10/01 03:30:31;;;;;;;12.07;5.70;;;;;;;11.84;100.00;102258.69;5090685;28;20032;-66
2023/10/01 03:33:15;;;;;;;14.07;5.78;;;;;;;11.80;100.00;102257.34;5090577;28;20054;-67
2023/10/01 03:35:47;;;;;;;14.48;5.68;;;;;;;11.82;100.00;102263.38;5090458;28;20767;-66
2023/10/01 03:38:14;;;;;;;13.52;5.05;;;;;;;11.79;100.00;102262.91;5090496;28;20433;-67
2023/10/01 03:43:37;;;;;;;12.63;5.55;;;;;;;11.79;100.00;102252.19;5093276;28;20497;-67
2023/10/01 03:46:26;;;;;;;12.85;5.30;;;;;;;11.77;100.00;102251.53;5090279;28;20043;-66
2023/10/01 03:48:59;;;;;;;12.10;6.50;;;;;;;11.75;100.00;102251.69;5089118;28;20027;-66
2023/10/01 03:51:29;;;;;;;13.05;6.00;;;;;;;11.74;100.00;102250.03;5090101;28;20032;-67
2023/10/01 03:53:59;;;;;;;14.32;5.28;;;;;;;11.73;100.00;102250.19;5090042;28;20038;-66
2023/10/01 03:56:29;;;;;;;15.35;6.90;;;;;;;11.69;100.00;102246.19;5089952;28;20032;-67
2023/10/01 03:58:55;;;;;;;12.60;5.85;;;;;;;11.69;100.00;102251.56;5090175;28;20035;-66
2023/10/01 04:01:33;;;;;;;13.23;5.38;;;;;;;11.71;100.00;102249.50;5090046;28;20050;-66
2023/10/01 04:04:02;;;;;;;9.73;4.70;;;;;;;11.72;100.00;102257.38;5090157;28;20032;-66
2023/10/01 04:06:30;;;;;;;13.75;5.63;;;;;;;11.70;100.00;102251.34;5089907;28;20058;-66
2023/10/01 04:08:56;;;;;;;13.98;5.35;;;;;;;11.71;100.00;102257.53;5089906;28;20039;-66
2023/10/01 04:11:41;;;;;;;13.05;6.05;;;;;;;11.72;100.00;102249.34;5089652;28;20877;-66
2023/10/01 04:14:10;;;;;;;14.20;5.97;;;;;;;11.67;100.00;102249.03;5089805;28;20027;-66
2023/10/01 04:16:35;;;;;;;13.32;5.40;;;;;;;11.69;100.00;102251.56;5089845;28;20067;-66
2023/10/01 04:19:01;;;;;;;11.65;5.63;;;;;;;11.70;100.00;102254.03;5089887;28;20111;-66
2023/10/01 04:21:28;;;;;;;10.40;5.20;;;;;;;11.68;100.00;102245.34;5089731;28;20020;-66
2023/10/01 04:23:54;;;;;;;13.05;5.97;;;;;;;11.64;100.00;102246.69;5089462;28;20101;-67
2023/10/01 04:26:20;;;;;;;12.82;5.30;;;;;;;11.68;100.00;102247.19;5089357;28;20016;-66
2023/10/01 04:28:50;;;;;;;12.95;5.35;;;;;;;11.68;100.00;102249.84;5089497;28;20871;-66
2023/10/01 04:31:18;;;;;;;14.55;5.30;;;;;;;11.64;100.00;102244.03;5089698;28;20035;-67
2023/10/01 04:33:49;;;;;;;16.15;6.40;;;;;;;11.66;100.00;102252.72;5089582;28;20035;-67
2023/10/01 04:36:20;;;;;;;13.13;6.05;;;;;;;11.60;100.00;102238.16;5089484;28;20096;-66
2023/10/01 04:38:49;;;;;;;42.88;6.65;;;;;;;11.56;100.00;102231.50;5089550;28;20036;-66
2023/10/01 04:41:22;;;;;;;10.77;5.30;;;;;;;11.66;100.00;102255.38;5089553;28;20080;-67
2023/10/01 04:43:59;;;;;;;12.40;5.18;;;;;;;11.64;100.00;102246.69;5089592;28;20960;-67
2023/10/01 04:46:25;;;;;;;12.13;5.35;;;;;;;11.69;100.00;102243.53;5089419;28;20023;-67
2023/10/01 04:48:51;;;;;;;13.77;5.10;;;;;;;11.67;100.00;102249.03;5089260;28;20032;-66
2023/10/01 04:51:17;;;;;;;13.25;5.57;;;;;;;11.68;100.00;102249.84;5089089;28;20028;-66
2023/10/01 04:53:46;;;;;;;14.82;6.38;;;;;;;11.68;100.00;102256.03;5089244;28;20070;-66
2023/10/01 04:56:20;;;;;;;11.85;5.13;;;;;;;11.68;100.00;102255.22;5089192;28;20119;-67
2023/10/01 04:58:46;;;;;;;12.98;5.38;;;;;;;11.68;100.00;102260.56;5089411;28;20039;-66
2023/10/01 05:01:12;;;;;;;13.40;5.18;;;;;;;11.68;100.00;102264.06;5088882;28;20425;-66
2023/10/01 05:03:39;;;;;;;11.70;5.75;;;;;;;11.68;100.00;102271.25;5089148;28;20024;-66
2023/10/01 05:06:15;;;;;;;15.77;5.68;;;;;;;11.67;100.00;102262.41;5089197;28;20028;-66
2023/10/01 05:08:42;;;;;;;9.35;4.95;;;;;;;11.65;100.00;102256.38;5089208;28;20457;-67
2023/10/01 05:11:10;;;;;;;10.88;5.57;;;;;;;11.65;100.00;102245.69;5089119;28;20047;-66
2023/10/01 05:13:39;;;;;;;11.13;5.50;;;;;;;11.61;100.00;102244.38;5088977;28;20066;-66
2023/10/01 05:16:06;;;;;;;13.05;6.22;;;;;;;11.63;100.00;102258.38;5088833;28;20032;-66
2023/10/01 05:18:33;;;;;;;12.05;5.15;;;;;;;11.62;100.00;102252.19;5088883;28;20047;-67
2023/10/01 05:20:59;;;;;;;10.90;4.35;;;;;;;11.61;100.00;102255.06;5089002;28;20538;-66
2023/10/01 05:23:27;;;;;;;13.82;5.00;;;;;;;11.62;100.00;102254.06;5088821;28;20086;-67
2023/10/01 05:25:56;;;;;;;11.07;4.80;;;;;;;11.63;100.00;102261.03;5089005;28;20032;-67
2023/10/01 05:28:31;;;;;;;14.90;5.10;;;;;;;11.62;100.00;102256.72;5087582;28;20055;-67
2023/10/01 05:31:00;;;;;;;10.60;4.93;;;;;;;11.61;100.00;102263.91;5089080;28;20051;-67
2023/10/01 05:33:27;;;;;;;14.10;6.15;;;;;;;11.62;100.00;102264.75;5088989;28;20032;-66
2023/10/01 05:35:57;;;;;;;10.82;4.60;;;;;;;11.57;100.00;102257.22;5088951;28;20024;-66
2023/10/01 05:38:26;;;;;;;14.57;4.78;;;;;;;11.61;100.00;102266.59;5090113;28;20028;-66
2023/10/01 05:40:54;;;;;;;11.63;6.07;;;;;;;11.58;100.00;102260.72;5092024;28;20028;-66
2023/10/01 05:43:23;;;;;;;10.80;4.72;;;;;;;11.60;100.00;102275.59;5091598;28;20115;-67
2023/10/01 05:45:52;;;;;;;12.15;4.55;;;;;;;11.61;100.00;102279.94;5091692;28;20043;-66
2023/10/01 05:48:23;;;;;;;13.68;5.82;;;;;;;11.57;100.00;102273.25;5091548;28;20105;-67
2023/10/01 05:50:53;;;;;;;12.70;4.70;;;;;;;11.62;100.00;102275.44;5091835;28;20032;-66
2023/10/01 05:53:18;;;;;;;12.07;4.88;;;;;;;11.62;100.00;102275.44;5090638;28;20039;-66
2023/10/01 05:55:44;;;;;;;12.32;4.63;;;;;;;11.63;100.00;102274.41;5090707;28;20036;-66
2023/10/01 05:58:13;;;;;;;12.93;5.63;;;;;;;11.65;100.00;102271.59;5091966;28;20027;-67
2023/10/01 06:00:45;;;;;;;10.40;6.15;;;;;;;11.60;100.00;102264.91;5091274;28;20099;-66
2023/10/01 06:03:23;;;;;;;11.38;4.90;;;;;;;11.65;100.00;102271.59;5091164;28;20512;-66
2023/10/01 06:05:57;;;;;;;13.23;5.43;;;;;;;11.68;100.00;102268.56;5091881;28;20047;-67
2023/10/01 06:08:32;;;;;;;15.48;6.47;;;;;;;11.71;100.00;102268.22;5072527;28;20449;-66
2023/10/01 06:11:05;;;;;;;14.70;5.93;;;;;;;11.71;100.00;102269.09;5092144;28;20039;-66
2023/10/01 06:13:51;;;;;;;12.60;5.07;;;;;;;11.78;100.00;102275.41;5091821;28;20028;-66
2023/10/01 06:16:25;;;;;;;11.27;4.55;;;;;;;11.81;100.00;102271.56;5091730;28;20459;-67
2023/10/01 06:18:59;;;;;;;13.45;4.65;;;;;;;11.84;100.00;102280.09;5090483;28;20764;-67
2023/10/01 06:21:31;;;;;;;10.77;4.88;;;;;;;11.86;100.00;102282.59;5091588;28;20048;-66
2023/10/01 06:24:10;;;;;;;9.63;4.03;;;;;;;11.90;100.00;102275.09;5091356;28;20139;-66
2023/10/01 06:26:56;;;;;;;16.63;5.13;;;;;;;11.93;100.00;102275.59;5091660;28;20335;-67
2023/10/01 06:29:22;;;;;;;14.88;4.90;;;;;;;11.95;100.00;102265.56;5091686;28;20085;-67
2023/10/01 06:32:02;;;;;;;15.27;5.32;;;;;;;11.98;100.00;102281.25;5091492;28;20398;-67
2023/10/01 06:34:39;;;;;;;13.75;5.72;;;;;;;12.02;100.00;102281.72;5091501;28;20062;-67
2023/10/01 06:37:05;;;;;;;15.05;4.90;;;;;;;12.06;100.00;102281.22;5091513;28;20539;-67
2023/10/01 06:39:35;;;;;;;11.27;5.20;;;;;;;12.09;100.00;102279.22;5091514;28;20040;-67
2023/10/01 06:42:18;;;;;;;11.07;4.85;;;;;;;12.13;100.00;102281.38;5091322;28;20058;-67
2023/10/01 06:44:44;;;;;;;12.52;6.65;;;;;;;12.12;100.00;102260.16;5091213;28;20360;-67
2023/10/01 06:47:16;;;;;;;14.23;6.38;;;;;;;12.19;100.00;102264.66;5091254;28;20039;-67
2023/10/01 06:52:44;;;;;;;13.27;5.50;;;;;;;12.27;100.00;102269.97;5089746;28;20036;-67
2023/10/01 06:55:25;;;;;;;11.90;5.97;;;;;;;12.27;100.00;102261.94;5090924;28;20043;-67
2023/10/01 06:57:52;;;;;;;15.10;4.90;;;;;;;12.36;100.00;102262.72;5090997;28;20102;-67
2023/10/01 07:00:22;;;;;;;12.63;5.45;;;;;;;12.44;100.00;102276.09;5090852;28;20602;-66
2023/10/01 07:02:49;;;;;;;14.50;5.57;;;;;;;12.50;100.00;102270.03;5090816;28;20534;-67
2023/10/01 07:05:20;;;;;;;11.95;5.68;;;;;;;12.58;100.00;102263.00;5089582;28;20027;-68
2023/10/01 07:07:45;;;;;;;11.43;4.80;;;;;;;12.63;100.00;102264.13;5090814;28;20048;-70
2023/10/01 07:10:11;;;;;;;11.95;5.47;;;;;;;12.72;100.00;102265.72;5090636;28;20309;-67
2023/10/01 07:12:38;;;;;;;18.65;6.47;;;;;;;12.82;100.00;102264.69;5090805;28;20031;-67
2023/10/01 07:15:04;;;;;;;12.65;4.90;;;;;;;12.89;100.00;102261.13;5090693;28;20032;-67
2023/10/01 07:17:31;;;;;;;12.35;5.03;;;;;;;12.98;100.00;102264.56;5090347;28;20580;-67
2023/10/01 07:19:59;;;;;;;12.27;5.50;;;;;;;13.09;100.00;102272.19;5090787;28;20086;-67
2023/10/01 07:22:34;;;;;;;10.98;4.40;;;;;;;13.16;100.00;102273.16;5090521;28;20525;-67
2023/10/01 07:25:28;;;;;;;19.00;6.40;;;;;;;13.23;100.00;102267.06;5088893;28;20143;-69
2023/10/01 07:27:51;;;;;;;15.98;5.30;;;;;;;13.37;100.00;102287.78;5089019;28;20039;-70
2023/10/01 07:30:18;;;;;;;16.63;5.95;;;;;;;13.45;100.00;102276.97;5090215;28;20043;-70
2023/10/01 07:32:44;;;;;;;14.10;5.38;;;;;;;13.53;100.00;102282.28;5090409;28;20490;-70
2023/10/01 07:35:13;;;;;;;11.18;5.63;;;;;;;13.62;100.00;102287.56;5090183;28;20036;-70
2023/10/01 07:37:41;;;;;;;15.52;5.65;;;;;;;13.72;100.00;102283.59;5090332;28;20081;-70
2023/10/01 07:40:13;;;;;;;13.18;4.95;;;;;;;13.75;100.00;102269.00;5090254;28;20027;-71
2023/10/01 07:42:46;;;;;;;16.75;5.55;;;;;;;13.90;100.00;102282.44;5090109;28;20514;-70
2023/10/01 07:45:16;;;;;;;11.85;5.20;;;;;;;14.01;100.00;102288.16;5090280;28;20046;-70
2023/10/01 07:47:45;;;;;;;17.27;6.45;;;;;;;14.10;100.00;102288.94;5090132;28;20060;-70
2023/10/01 07:50:16;;;;;;;14.77;7.40;;;;;;;14.25;100.00;102299.63;5089970;28;20097;-70
2023/10/01 07:52:44;;;;;;;13.68;5.65;;;;;;;14.37;100.00;102289.28;5089816;28;20506;-69
2023/10/01 07:58:22;;;;;;;14.68;6.63;;;;;;;14.58;100.00;102297.44;5089766;28;20395;-70
2023/10/01 08:00:41;;;;;;;15.88;5.78;;;;;;;14.79;100.00;102293.97;5089529;28;20131;-70
2023/10/01 08:05:47;;;;;;;15.45;5.38;;;;;;;14.95;100.00;102278.63;5089902;28;20598;-70
2023/10/01 08:08:13;;;;;;;17.40;6.28;;;;;;;15.12;100.00;102286.28;5090121;28;20028;-70
2023/10/01 08:10:43;;;;;;;14.82;5.50;;;;;;;15.20;100.00;102289.84;5089543;28;20046;-70
2023/10/01 08:13:23;;;;;;;12.75;5.22;;;;;;;15.29;100.00;102291.38;5072020;28;20028;-70
2023/10/01 08:15:58;;;;;;;12.55;5.35;;;;;;;15.41;100.00;102297.09;5089585;28;20035;-70
2023/10/01 08:18:34;;;;;;;11.43;5.10;;;;;;;15.49;100.00;102294.25;5089435;28;20586;-70
2023/10/01 08:21:02;;;;;;;14.60;5.85;;;;;;;15.58;100.00;102293.06;5088218;28;20043;-70
2023/10/01 08:23:45;;;;;;;16.85;7.10;;;;;;;15.70;100.00;102296.94;5089000;28;20059;-70
2023/10/01 08:28:57;;;;;;;15.85;6.35;;;;;;;16.02;100.00;102302.75;5089446;28;20075;-70
2023/10/01 08:37:09;;;;;;;12.95;5.20;;;;;;;16.30;100.00;102302.72;5071965;28;20063;-72
2023/10/01 08:39:34;;;;;;;15.13;5.35;;;;;;;16.37;100.00;102300.91;5080180;28;20034;-72
2023/10/01 08:42:08;;;;;;;13.57;5.47;;;;;;;16.41;100.00;102296.75;5081411;28;20369;-71
2023/10/01 08:44:54;;;;;;;18.00;6.15;;;;;;;16.60;100.00;102303.25;5081419;28;20077;-71
2023/10/01 08:47:27;;;;;;;11.23;5.55;;;;;;;16.77;100.00;102303.78;5081266;28;20062;-71
2023/10/01 08:49:55;;;;;;;15.75;6.05;;;;;;;16.89;100.00;102306.72;5080617;28;20799;-70
2023/10/01 08:52:26;;;;;;;15.35;6.60;;;;;;;16.95;100.00;102300.53;5081026;28;20126;-71
2023/10/01 08:54:54;;;;;;;13.43;5.05;;;;;;;17.04;100.00;102295.75;5088136;28;20040;-71
2023/10/01 08:57:45;;;;;;;15.48;6.20;;;;;;;17.16;100.00;102296.84;5089038;28;20039;-70
2023/10/01 09:00:19;;;;;;;16.67;6.13;;;;;;;17.24;100.00;102298.50;5089259;28;20040;-70
2023/10/01 09:02:53;;;;;;;14.20;6.03;;;;;;;17.37;100.00;102301.22;5089066;28;20024;-70
2023/10/01 09:05:25;;;;;;;13.27;5.28;;;;;;;17.48;100.00;102307.84;5088944;28;20032;-71
2023/10/01 09:10:39;;;;;;;12.32;5.85;;;;;;;17.74;100.00;102304.31;5089376;28;20039;-71
2023/10/01 09:13:08;;;;;;;10.77;4.95;;;;;;;17.84;100.00;102293.13;5089483;28;20020;-71
2023/10/01 09:15:38;;;;;;;12.88;5.78;;;;;;;17.99;100.00;102301.00;5092881;28;20123;-70
2023/10/01 09:18:10;;;;;;;15.60;6.43;;;;;;;18.20;100.00;102300.72;5093061;28;20400;-71
2023/10/01 09:20:36;;;;;;;15.23;5.53;;;;;;;18.35;100.00;102287.81;5092830;28;20111;-70
2023/10/01 09:23:01;;;;;;;14.53;5.50;;;;;;;18.50;100.00;102279.44;5092521;28;20107;-71
2023/10/01 09:25:26;;;;;;;15.70;5.28;;;;;;;18.59;100.00;102296.25;5091311;28;20308;-70
2023/10/01 09:28:19;;;;;;;23.58;6.55;;;;;;;18.64;100.00;102288.31;5092716;28;20073;-71
2023/10/01 09:31:26;;;;;;;12.43;5.43;;;;;;;18.69;100.00;102291.19;5092311;28;20572;-71
2023/10/01 09:33:52;;;;;;;15.43;5.55;;;;;;;18.73;100.00;102288.88;5055360;28;20040;-71
2023/10/01 09:36:45;;;;;;;16.65;7.18;;;;;;;18.72;100.00;102279.97;5092524;28;20135;-71
2023/10/01 09:39:13;;;;;;;17.40;6.13;;;;;;;18.64;100.00;102274.81;5092421;28;20398;-71
2023/10/01 09:41:43;;;;;;;14.90;5.05;;;;;;;18.67;100.00;102271.66;5092497;28;20486;-71
2023/10/01 09:44:14;;;;;;;12.57;5.68;;;;;;;18.69;100.00;102277.69;5092446;28;20453;-71
2023/10/01 09:46:40;;;;;;;16.30;5.10;;;;;;;18.70;100.00;102275.81;5092350;28;20036;-72
2023/10/01 09:49:06;;;;;;;19.15;6.60;;;;;;;18.65;100.00;102272.94;5092128;28;20387;-71
2023/10/01 09:51:41;;;;;;;15.93;5.88;;;;;;;18.65;100.00;102276.44;5092126;28;20032;-71
2023/10/01 09:54:11;;;;;;;15.27;5.88;;;;;;;18.76;100.00;102272.28;5092156;28;20036;-71
2023/10/01 09:59:08;;;;;;;13.90;5.70;;;;;;;18.99;100.00;102272.56;5092319;28;20397;-70
2023/10/01 10:01:35;;;;;;;14.18;5.88;;;;;;;19.01;100.00;102286.69;5092090;28;20036;-70
2023/10/01 10:04:06;;;;;;;14.73;5.18;;;;;;;19.02;100.00;102285.66;5091918;28;20035;-70
2023/10/01 10:06:32;;;;;;;14.55;4.90;;;;;;;19.05;100.00;102290.63;5091957;28;20378;-70
2023/10/01 10:09:03;;;;;;;14.55;5.63;;;;;;;19.13;100.00;102280.59;5091967;28;20048;-69
2023/10/01 10:11:40;;;;;;;13.38;5.28;;;;;;;19.23;100.00;102281.75;5091787;28;20017;-70
2023/10/01 10:14:27;;;;;;;14.73;5.72;;;;;;;19.36;100.00;102288.09;5091662;28;20032;-70
2023/10/01 10:17:00;;;;;;;17.25;5.45;;;;;;;19.49;100.00;102272.59;5091975;28;20036;-70
2023/10/01 10:19:30;;;;;;;12.68;4.97;;;;;;;19.60;100.00;102278.34;5091558;28;20073;-70
2023/10/01 10:24:29;;;;;;;12.33;5.60;;;;;;;19.73;99.60;102272.84;5090946;28;20044;-69
2023/10/01 10:27:33;;;;;;;16.08;5.90;;;;;;;19.84;100.00;102271.28;5092149;28;20269;-69
2023/10/01 10:29:57;;;;;;;16.77;5.40;;;;;;;19.92;99.16;102282.63;5091124;28;20040;-69
2023/10/01 10:32:42;;;;;;;15.18;5.72;;;;;;;20.02;99.07;102263.16;5091387;28;20024;-69
2023/10/01 10:35:12;;;;;;;13.82;5.78;;;;;;;20.10;97.48;102265.56;5091340;28;20016;-69
2023/10/01 10:37:56;;;;;;;14.10;5.55;;;;;;;20.23;99.88;102261.06;5091599;28;20479;-69
2023/10/01 10:40:23;;;;;;;15.10;5.03;;;;;;;20.36;97.99;102259.00;5089885;28;20093;-69
2023/10/01 10:42:57;;;;;;;11.63;4.30;;;;;;;20.47;98.20;102262.00;5081231;28;20024;-70
2023/10/01 10:45:24;;;;;;;12.63;4.90;;;;;;;20.49;98.29;102258.00;5083449;28;20023;-70
2023/10/01 10:48:02;;;;;;;14.20;4.13;;;;;;;20.56;97.14;102256.06;5083062;28;20064;-73
2023/10/01 10:50:50;;;;;;;13.85;4.57;;;;;;;20.58;94.97;102256.66;5081702;28;20100;-70
2023/10/01 10:53:20;;;;;;;14.05;5.00;;;;;;;20.54;94.77;102241.06;5083398;28;20059;-67
2023/10/01 10:55:53;;;;;;;13.48;4.70;;;;;;;20.58;97.17;102248.53;5082901;28;20058;-68
2023/10/01 10:58:20;;;;;;;15.00;5.40;;;;;;;20.58;93.76;102250.41;5083255;28;20043;-70
2023/10/01 11:00:49;;;;;;;14.40;5.10;;;;;;;20.63;95.97;102257.88;5082669;28;20011;-70
2023/10/01 11:03:16;;;;;;;16.27;5.50;;;;;;;20.69;97.06;102238.78;5081532;28;20107;-69
2023/10/01 11:05:50;;;;;;;14.18;4.97;;;;;;;20.82;94.99;102247.78;5082917;28;20024;-71
2023/10/01 11:08:26;;;;;;;13.85;4.97;;;;;;;20.91;95.22;102247.25;5082578;28;20028;-69
2023/10/01 11:10:57;;;;;;;11.80;5.63;;;;;;;21.01;96.46;102242.09;5082589;28;20028;-69
2023/10/01 11:13:38;;;;;;;17.53;5.23;;;;;;;21.09;95.40;102249.06;5082748;28;20040;-70
2023/10/01 11:16:15;;;;;;;13.25;5.82;;;;;;;21.12;92.77;102237.72;5082595;28;20031;-69
2023/10/01 11:18:50;;;;;;;16.33;5.40;;;;;;;21.23;95.46;102241.53;5083218;28;20111;-71
2023/10/01 11:21:24;;;;;;;14.25;4.78;;;;;;;21.24;92.61;102235.84;5082226;28;20024;-70
2023/10/01 11:23:53;;;;;;;14.30;5.63;;;;;;;21.27;94.95;102228.31;5082609;28;20047;-71
2023/10/01 11:26:29;;;;;;;13.02;5.10;;;;;;;21.26;93.76;102222.06;5082927;28;20028;-71
2023/10/01 11:29:11;;;;;;;14.18;4.55;;;;;;;21.30;92.41;102222.41;5080507;28;20039;-69
2023/10/01 11:31:38;;;;;;;16.55;5.25;;;;;;;21.40;92.78;102225.38;5082475;28;20024;-70
2023/10/01 11:34:21;;;;;;;12.68;4.68;;;;;;;21.48;90.81;102221.50;5080213;28;20026;-71
2023/10/01 11:36:56;;;;;;;14.10;5.38;;;;;;;21.56;91.02;102222.00;5082150;28;20081;-69
2023/10/01 11:39:49;;;;;;;12.05;4.68;;;;;;;21.63;91.72;102217.25;5082826;28;20035;-70
2023/10/01 11:42:38;;;;;;;18.00;4.93;;;;;;;21.61;90.77;102213.97;5081487;28;20123;-69
2023/10/01 11:45:29;;;;;;;15.25;4.45;;;;;;;21.66;90.10;102214.03;5082254;28;20021;-69
2023/10/01 11:48:05;;;;;;;12.13;5.70;;;;;;;21.65;90.14;102206.97;5081931;28;20074;-71
2023/10/01 11:50:31;;;;;;;11.98;4.55;;;;;;;21.75;90.17;102202.84;5080531;28;20032;-71
2023/10/01 11:53:06;;;;;;;10.75;4.82;;;;;;;21.80;89.88;102209.22;5081690;28;20133;-71
2023/10/01 11:55:33;;;;;;;15.93;5.32;;;;;;;21.82;89.02;102198.94;5081500;28;20016;-69
2023/10/01 11:57:59;;;;;;;15.15;4.57;;;;;;;21.94;90.24;102195.38;5081678;28;20035;-67
2023/10/01 12:03:12;;;;;;;13.18;5.32;;;;;;;22.02;86.40;102194.97;5082028;28;20075;-69
2023/10/01 12:05:41;;;;;;;11.05;4.93;;;;;;;22.04;87.50;102190.13;5082550;28;20995;-66
2023/10/01 12:08:10;;;;;;;11.05;4.63;;;;;;;22.07;88.58;102189.66;5082006;28;20123;-68
2023/10/01 12:10:36;;;;;;;16.10;4.97;;;;;;;22.12;88.55;102187.03;5081471;28;20024;-70